sensor_id;sensor_type;location;lat;lon;timestamp;temperature;humidity
31991;DHT22;18508;49.386;8.370;2023-05-16T00:02:21;12.00;99.90
31991;DHT22;18508;49.386;8.370;2023-05-16T00:04:50;12.00;99.90
31991;DHT22;18508;49.386;8.370;2023-05-16T00:07:18;12.00;99.90
31991;DHT22;18508;49.386;8.370;2023-05-16T00:09:47;12.00;99.90
31991;DHT22;18508;49.386;8.370;2023-05-16T00:12:15;12.00;99.90
31991;DHT22;18508;49.386;8.370;2023-05-16T00:14:50;12.00;99.90
31991;DHT22;18508;49.386;8.370;2023-05-16T00:17:22;12.00;99.90
31991;DHT22;18508;49.386;8.370;2023-05-16T00:19:54;12.00;99.90
31991;DHT22;18508;49.386;8.370;2023-05-16T00:22:24;12.00;99.90
31991;DHT22;18508;49.386;8.370;2023-05-16T00:24:53;12.00;99.90
31991;DHT22;18508;49.386;8.370;2023-05-16T00:27:21;12.00;99.90
31991;DHT22;18508;49.386;8.370;2023-05-16T00:29:51;12.00;99.90
31991;DHT22;18508;49.386;8.370;2023-05-16T00:32:19;12.00;99.90
31991;DHT22;18508;49.386;8.370;2023-05-16T00:34:47;12.10;99.90
31991;DHT22;18508;49.386;8.370;2023-05-16T00:37:16;12.00;99.90
31991;DHT22;18508;49.386;8.370;2023-05-16T00:39:44;12.00;99.90
31991;DHT22;18508;49.386;8.370;2023-05-16T00:42:12;12.00;99.90
31991;DHT22;18508;49.386;8.370;2023-05-16T00:44:40;12.00;99.90
31991;DHT22;18508;49.386;8.370;2023-05-16T00:47:09;12.00;99.90
31991;DHT22;18508;49.386;8.370;2023-05-16T00:49:37;12.00;99.90
31991;DHT22;18508;49.386;8.370;2023-05-16T00:52:05;11.90;99.90
31991;DHT22;18508;49.386;8.370;2023-05-16T00:54:34;11.90;99.90
31991;DHT22;18508;49.386;8.370;2023-05-16T00:57:03;11.90;99.90
31991;DHT22;18508;49.386;8.370;2023-05-16T00:59:32;11.90;99.90
31991;DHT22;18508;49.386;8.370;2023-05-16T01:02:00;11.90;99.90
31991;DHT22;18508;49.386;8.370;2023-05-16T01:04:34;11.90;99.90
31991;DHT22;18508;49.386;8.370;2023-05-16T01:07:02;11.90;99.90
31991;DHT22;18508;49.386;8.370;2023-05-16T01:09:31;11.90;99.90
31991;DHT22;18508;49.386;8.370;2023-05-16T01:12:08;11.90;99.90
31991;DHT22;18508;49.386;8.370;2023-05-16T01:14:43;11.90;99.90
31991;DHT22;18508;49.386;8.370;2023-05-16T01:17:19;11.90;99.90
31991;DHT22;18508;49.386;8.370;2023-05-16T01:19:59;11.90;99.90
31991;DHT22;18508;49.386;8.370;2023-05-16T01:22:41;11.90;99.90
31991;DHT22;18508;49.386;8.370;2023-05-16T01:25:24;11.90;99.90
31991;DHT22;18508;49.386;8.370;2023-05-16T01:27:56;11.90;99.90
31991;DHT22;18508;49.386;8.370;2023-05-16T01:30:25;11.90;99.90
31991;DHT22;18508;49.386;8.370;2023-05-16T01:32:53;11.90;99.90
31991;DHT22;18508;49.386;8.370;2023-05-16T01:35:22;11.90;99.90
31991;DHT22;18508;49.386;8.370;2023-05-16T01:37:57;11.90;99.90
31991;DHT22;18508;49.386;8.370;2023-05-16T01:40:30;11.90;99.90
31991;DHT22;18508;49.386;8.370;2023-05-16T01:43:07;11.90;99.90
31991;DHT22;18508;49.386;8.370;2023-05-16T01:45:40;11.80;99.90
31991;DHT22;18508;49.386;8.370;2023-05-16T01:48:14;11.90;99.90
31991;DHT22;18508;49.386;8.370;2023-05-16T01:50:47;11.80;99.90
31991;DHT22;18508;49.386;8.370;2023-05-16T01:53:21;11.80;99.90
31991;DHT22;18508;49.386;8.370;2023-05-16T01:55:51;11.80;99.90
31991;DHT22;18508;49.386;8.370;2023-05-16T01:58:24;11.80;99.90
31991;DHT22;18508;49.386;8.370;2023-05-16T02:00:52;11.80;99.90
31991;DHT22;18508;49.386;8.370;2023-05-16T02:03:24;11.80;99.90
31991;DHT22;18508;49.386;8.370;2023-05-16T02:05:53;11.80;99.90
31991;DHT22;18508;49.386;8.370;2023-05-16T02:08:22;11.80;99.90
31991;DHT22;18508;49.386;8.370;2023-05-16T02:10:51;11.80;99.90
31991;DHT22;18508;49.386;8.370;2023-05-16T02:13:20;11.70;99.90
31991;DHT22;18508;49.386;8.370;2023-05-16T02:15:48;11.70;99.90
31991;DHT22;18508;49.386;8.370;2023-05-16T02:18:16;11.70;99.90
31991;DHT22;18508;49.386;8.370;2023-05-16T02:20:45;11.70;99.90
31991;DHT22;18508;49.386;8.370;2023-05-16T02:23:13;11.60;99.90
31991;DHT22;18508;49.386;8.370;2023-05-16T02:25:45;11.60;99.90
31991;DHT22;18508;49.386;8.370;2023-05-16T02:28:13;11.60;99.90
31991;DHT22;18508;49.386;8.370;2023-05-16T02:30:43;11.60;99.90
31991;DHT22;18508;49.386;8.370;2023-05-16T02:33:11;11.60;99.90
31991;DHT22;18508;49.386;8.370;2023-05-16T02:35:39;11.60;99.90
31991;DHT22;18508;49.386;8.370;2023-05-16T02:38:07;11.60;99.90
31991;DHT22;18508;49.386;8.370;2023-05-16T02:40:36;11.50;99.90
31991;DHT22;18508;49.386;8.370;2023-05-16T02:43:04;11.50;99.90
31991;DHT22;18508;49.386;8.370;2023-05-16T02:45:32;11.50;99.90
31991;DHT22;18508;49.386;8.370;2023-05-16T02:48:01;11.50;99.90
31991;DHT22;18508;49.386;8.370;2023-05-16T02:50:29;11.50;99.90
31991;DHT22;18508;49.386;8.370;2023-05-16T02:52:57;11.40;99.90
31991;DHT22;18508;49.386;8.370;2023-05-16T02:55:28;11.40;99.90
31991;DHT22;18508;49.386;8.370;2023-05-16T02:57:56;11.40;99.90
31991;DHT22;18508;49.386;8.370;2023-05-16T03:00:24;11.30;99.90
31991;DHT22;18508;49.386;8.370;2023-05-16T03:02:52;11.30;99.90
31991;DHT22;18508;49.386;8.370;2023-05-16T03:05:21;11.30;99.90
31991;DHT22;18508;49.386;8.370;2023-05-16T03:07:52;11.20;99.90
31991;DHT22;18508;49.386;8.370;2023-05-16T03:10:23;11.20;99.90
31991;DHT22;18508;49.386;8.370;2023-05-16T03:12:51;11.20;99.90
31991;DHT22;18508;49.386;8.370;2023-05-16T03:15:20;11.20;99.90
31991;DHT22;18508;49.386;8.370;2023-05-16T03:17:48;11.10;99.90
31991;DHT22;18508;49.386;8.370;2023-05-16T03:20:21;11.10;99.90
31991;DHT22;18508;49.386;8.370;2023-05-16T03:22:50;11.00;99.90
31991;DHT22;18508;49.386;8.370;2023-05-16T03:25:18;11.10;99.90
31991;DHT22;18508;49.386;8.370;2023-05-16T03:27:46;11.00;99.90
31991;DHT22;18508;49.386;8.370;2023-05-16T03:30:15;11.00;99.90
31991;DHT22;18508;49.386;8.370;2023-05-16T03:32:44;11.00;99.90
31991;DHT22;18508;49.386;8.370;2023-05-16T03:35:12;11.00;99.90
31991;DHT22;18508;49.386;8.370;2023-05-16T03:37:42;11.00;99.90
31991;DHT22;18508;49.386;8.370;2023-05-16T03:40:11;11.00;99.90
31991;DHT22;18508;49.386;8.370;2023-05-16T03:42:39;11.00;99.90
31991;DHT22;18508;49.386;8.370;2023-05-16T03:45:11;11.00;99.90
31991;DHT22;18508;49.386;8.370;2023-05-16T03:47:39;11.00;99.90
31991;DHT22;18508;49.386;8.370;2023-05-16T03:50:08;11.00;99.90
31991;DHT22;18508;49.386;8.370;2023-05-16T03:52:36;11.00;99.90
31991;DHT22;18508;49.386;8.370;2023-05-16T03:55:07;11.00;99.90
31991;DHT22;18508;49.386;8.370;2023-05-16T03:57:36;11.10;99.90
31991;DHT22;18508;49.386;8.370;2023-05-16T04:00:06;11.10;99.90
31991;DHT22;18508;49.386;8.370;2023-05-16T04:02:34;11.10;99.90
31991;DHT22;18508;49.386;8.370;2023-05-16T04:05:03;11.10;99.90
31991;DHT22;18508;49.386;8.370;2023-05-16T04:07:31;11.10;99.90
31991;DHT22;18508;49.386;8.370;2023-05-16T04:10:00;11.10;99.90
31991;DHT22;18508;49.386;8.370;2023-05-16T04:12:29;11.10;99.90
31991;DHT22;18508;49.386;8.370;2023-05-16T04:14:58;11.10;99.90
31991;DHT22;18508;49.386;8.370;2023-05-16T04:17:29;11.10;99.90
31991;DHT22;18508;49.386;8.370;2023-05-16T04:19:58;11.20;99.90
31991;DHT22;18508;49.386;8.370;2023-05-16T04:22:26;11.10;99.90
31991;DHT22;18508;49.386;8.370;2023-05-16T04:24:54;11.20;99.90
31991;DHT22;18508;49.386;8.370;2023-05-16T04:27:23;11.20;99.90
31991;DHT22;18508;49.386;8.370;2023-05-16T04:29:57;11.30;99.90
31991;DHT22;18508;49.386;8.370;2023-05-16T04:32:25;11.20;99.90
31991;DHT22;18508;49.386;8.370;2023-05-16T04:34:54;11.30;99.90
31991;DHT22;18508;49.386;8.370;2023-05-16T04:37:22;11.30;99.90
31991;DHT22;18508;49.386;8.370;2023-05-16T04:39:50;11.30;99.90
31991;DHT22;18508;49.386;8.370;2023-05-16T04:42:20;11.30;99.90
31991;DHT22;18508;49.386;8.370;2023-05-16T04:44:49;11.30;99.90
31991;DHT22;18508;49.386;8.370;2023-05-16T04:47:20;11.40;99.90
31991;DHT22;18508;49.386;8.370;2023-05-16T04:49:48;11.40;99.90
31991;DHT22;18508;49.386;8.370;2023-05-16T04:52:16;11.40;99.90
31991;DHT22;18508;49.386;8.370;2023-05-16T04:54:44;11.50;99.90
31991;DHT22;18508;49.386;8.370;2023-05-16T04:57:13;11.50;99.90
31991;DHT22;18508;49.386;8.370;2023-05-16T04:59:41;11.50;99.90
31991;DHT22;18508;49.386;8.370;2023-05-16T05:02:09;11.60;99.90
31991;DHT22;18508;49.386;8.370;2023-05-16T05:04:43;11.70;99.90
31991;DHT22;18508;49.386;8.370;2023-05-16T05:07:14;11.70;99.90
31991;DHT22;18508;49.386;8.370;2023-05-16T05:09:42;11.80;99.90
31991;DHT22;18508;49.386;8.370;2023-05-16T05:14:39;11.80;99.90
31991;DHT22;18508;49.386;8.370;2023-05-16T05:17:07;11.90;99.90
31991;DHT22;18508;49.386;8.370;2023-05-16T05:19:35;11.90;99.90
31991;DHT22;18508;49.386;8.370;2023-05-16T05:22:05;12.00;99.90
31991;DHT22;18508;49.386;8.370;2023-05-16T05:24:33;12.00;99.90
31991;DHT22;18508;49.386;8.370;2023-05-16T05:27:02;12.10;99.90
31991;DHT22;18508;49.386;8.370;2023-05-16T05:29:30;12.10;99.90
31991;DHT22;18508;49.386;8.370;2023-05-16T05:31:58;12.20;99.90
31991;DHT22;18508;49.386;8.370;2023-05-16T05:34:26;12.20;99.90
31991;DHT22;18508;49.386;8.370;2023-05-16T05:36:55;12.30;99.90
31991;DHT22;18508;49.386;8.370;2023-05-16T05:39:25;12.30;99.90
31991;DHT22;18508;49.386;8.370;2023-05-16T05:41:56;12.40;99.90
31991;DHT22;18508;49.386;8.370;2023-05-16T05:44:29;12.50;99.90
31991;DHT22;18508;49.386;8.370;2023-05-16T05:46:57;12.60;99.90
31991;DHT22;18508;49.386;8.370;2023-05-16T05:49:26;12.60;99.90
31991;DHT22;18508;49.386;8.370;2023-05-16T05:51:54;12.60;99.90
31991;DHT22;18508;49.386;8.370;2023-05-16T05:54:22;12.70;99.90
31991;DHT22;18508;49.386;8.370;2023-05-16T05:56:52;12.80;99.90
31991;DHT22;18508;49.386;8.370;2023-05-16T05:59:20;12.90;99.90
31991;DHT22;18508;49.386;8.370;2023-05-16T06:01:49;12.90;99.90
31991;DHT22;18508;49.386;8.370;2023-05-16T06:04:18;12.90;99.90
31991;DHT22;18508;49.386;8.370;2023-05-16T06:06:47;13.00;99.90
31991;DHT22;18508;49.386;8.370;2023-05-16T06:09:16;13.00;99.90
31991;DHT22;18508;49.386;8.370;2023-05-16T06:11:44;13.00;99.90
31991;DHT22;18508;49.386;8.370;2023-05-16T06:14:14;13.00;99.90
31991;DHT22;18508;49.386;8.370;2023-05-16T06:16:42;12.90;99.90
31991;DHT22;18508;49.386;8.370;2023-05-16T06:19:11;12.70;99.90
31991;DHT22;18508;49.386;8.370;2023-05-16T06:21:42;12.80;99.90
31991;DHT22;18508;49.386;8.370;2023-05-16T06:24:10;12.70;99.90
31991;DHT22;18508;49.386;8.370;2023-05-16T06:26:39;12.70;99.90
31991;DHT22;18508;49.386;8.370;2023-05-16T06:29:07;12.70;99.90
31991;DHT22;18508;49.386;8.370;2023-05-16T06:31:36;12.70;99.90
31991;DHT22;18508;49.386;8.370;2023-05-16T06:34:06;12.80;99.90
31991;DHT22;18508;49.386;8.370;2023-05-16T06:36:34;12.90;99.90
31991;DHT22;18508;49.386;8.370;2023-05-16T06:39:02;13.00;99.90
31991;DHT22;18508;49.386;8.370;2023-05-16T06:41:30;13.00;99.90
31991;DHT22;18508;49.386;8.370;2023-05-16T06:43:59;13.10;99.90
31991;DHT22;18508;49.386;8.370;2023-05-16T06:46:31;13.10;99.90
31991;DHT22;18508;49.386;8.370;2023-05-16T06:49:01;13.20;99.90
31991;DHT22;18508;49.386;8.370;2023-05-16T06:51:30;13.30;99.90
31991;DHT22;18508;49.386;8.370;2023-05-16T06:53:58;13.40;99.90
31991;DHT22;18508;49.386;8.370;2023-05-16T06:56:29;13.40;99.90
31991;DHT22;18508;49.386;8.370;2023-05-16T06:58:58;13.40;99.90
31991;DHT22;18508;49.386;8.370;2023-05-16T07:01:27;13.40;99.90
31991;DHT22;18508;49.386;8.370;2023-05-16T07:03:56;13.40;99.90
31991;DHT22;18508;49.386;8.370;2023-05-16T07:06:26;13.60;99.90
31991;DHT22;18508;49.386;8.370;2023-05-16T07:08:54;13.70;99.90
31991;DHT22;18508;49.386;8.370;2023-05-16T07:11:26;13.50;99.90
31991;DHT22;18508;49.386;8.370;2023-05-16T07:16:23;13.50;99.90
31991;DHT22;18508;49.386;8.370;2023-05-16T07:18:54;13.60;99.90
31991;DHT22;18508;49.386;8.370;2023-05-16T07:21:22;13.60;99.90
31991;DHT22;18508;49.386;8.370;2023-05-16T07:23:51;13.80;99.90
31991;DHT22;18508;49.386;8.370;2023-05-16T07:26:20;13.70;99.90
31991;DHT22;18508;49.386;8.370;2023-05-16T07:28:49;13.60;99.90
31991;DHT22;18508;49.386;8.370;2023-05-16T07:31:18;13.50;99.90
31991;DHT22;18508;49.386;8.370;2023-05-16T07:33:47;13.40;99.90
31991;DHT22;18508;49.386;8.370;2023-05-16T07:36:15;13.40;99.90
31991;DHT22;18508;49.386;8.370;2023-05-16T07:38:45;13.50;99.90
31991;DHT22;18508;49.386;8.370;2023-05-16T07:41:14;13.50;99.90
31991;DHT22;18508;49.386;8.370;2023-05-16T07:43:42;13.40;99.90
31991;DHT22;18508;49.386;8.370;2023-05-16T07:46:12;13.40;99.90
31991;DHT22;18508;49.386;8.370;2023-05-16T07:48:41;13.30;99.90
31991;DHT22;18508;49.386;8.370;2023-05-16T07:51:09;13.40;99.90
31991;DHT22;18508;49.386;8.370;2023-05-16T07:53:37;13.40;99.90
31991;DHT22;18508;49.386;8.370;2023-05-16T07:56:07;13.40;99.90
31991;DHT22;18508;49.386;8.370;2023-05-16T07:58:37;13.50;99.90
31991;DHT22;18508;49.386;8.370;2023-05-16T08:01:05;13.50;99.90
31991;DHT22;18508;49.386;8.370;2023-05-16T08:03:37;13.40;99.90
31991;DHT22;18508;49.386;8.370;2023-05-16T08:06:06;13.40;99.90
31991;DHT22;18508;49.386;8.370;2023-05-16T08:08:34;13.40;99.90
31991;DHT22;18508;49.386;8.370;2023-05-16T08:11:03;13.30;99.90
31991;DHT22;18508;49.386;8.370;2023-05-16T08:13:31;13.10;99.90
31991;DHT22;18508;49.386;8.370;2023-05-16T08:16:02;13.00;99.90
31991;DHT22;18508;49.386;8.370;2023-05-16T08:18:30;12.90;99.90
31991;DHT22;18508;49.386;8.370;2023-05-16T08:20:58;12.90;99.90
31991;DHT22;18508;49.386;8.370;2023-05-16T08:23:26;12.70;99.90
31991;DHT22;18508;49.386;8.370;2023-05-16T08:25:54;12.70;99.90
31991;DHT22;18508;49.386;8.370;2023-05-16T08:28:24;12.80;99.90
31991;DHT22;18508;49.386;8.370;2023-05-16T08:30:53;12.70;99.90
31991;DHT22;18508;49.386;8.370;2023-05-16T08:33:23;12.70;99.90
31991;DHT22;18508;49.386;8.370;2023-05-16T08:35:51;12.70;99.90
31991;DHT22;18508;49.386;8.370;2023-05-16T08:38:23;12.70;99.90
31991;DHT22;18508;49.386;8.370;2023-05-16T08:40:51;12.70;99.90
31991;DHT22;18508;49.386;8.370;2023-05-16T08:43:20;12.60;99.90
31991;DHT22;18508;49.386;8.370;2023-05-16T08:45:48;12.50;99.90
31991;DHT22;18508;49.386;8.370;2023-05-16T08:48:19;12.50;99.90
31991;DHT22;18508;49.386;8.370;2023-05-16T08:50:50;12.50;99.90
31991;DHT22;18508;49.386;8.370;2023-05-16T08:53:21;12.60;99.90
31991;DHT22;18508;49.386;8.370;2023-05-16T08:55:52;12.60;99.90
31991;DHT22;18508;49.386;8.370;2023-05-16T08:58:20;12.70;99.90
31991;DHT22;18508;49.386;8.370;2023-05-16T09:00:49;12.70;99.90
31991;DHT22;18508;49.386;8.370;2023-05-16T09:03:18;12.70;99.90
31991;DHT22;18508;49.386;8.370;2023-05-16T09:05:52;12.70;99.90
31991;DHT22;18508;49.386;8.370;2023-05-16T09:08:20;12.80;99.90
31991;DHT22;18508;49.386;8.370;2023-05-16T09:10:48;12.80;99.90
31991;DHT22;18508;49.386;8.370;2023-05-16T09:13:17;12.80;99.90
31991;DHT22;18508;49.386;8.370;2023-05-16T09:16:08;13.00;99.90
31991;DHT22;18508;49.386;8.370;2023-05-16T09:18:37;13.10;99.90
31991;DHT22;18508;49.386;8.370;2023-05-16T09:21:09;13.20;99.90
31991;DHT22;18508;49.386;8.370;2023-05-16T09:23:39;13.00;99.90
31991;DHT22;18508;49.386;8.370;2023-05-16T09:26:09;12.90;99.90
31991;DHT22;18508;49.386;8.370;2023-05-16T09:28:37;12.70;99.90
31991;DHT22;18508;49.386;8.370;2023-05-16T09:31:19;12.90;99.90
31991;DHT22;18508;49.386;8.370;2023-05-16T09:33:48;13.00;99.90
31991;DHT22;18508;49.386;8.370;2023-05-16T09:36:18;13.00;78.60
31991;DHT22;18508;49.386;8.370;2023-05-16T09:38:46;13.10;60.50
31991;DHT22;18508;49.386;8.370;2023-05-16T09:41:15;13.20;27.80
31991;DHT22;18508;49.386;8.370;2023-05-16T09:43:43;13.00;7.30
31991;DHT22;18508;49.386;8.370;2023-05-16T09:46:12;13.00;1.00
31991;DHT22;18508;49.386;8.370;2023-05-16T09:48:44;13.00;1.00
31991;DHT22;18508;49.386;8.370;2023-05-16T09:51:13;13.00;1.00
31991;DHT22;18508;49.386;8.370;2023-05-16T09:53:44;12.90;1.00
31991;DHT22;18508;49.386;8.370;2023-05-16T09:56:13;12.80;1.00
31991;DHT22;18508;49.386;8.370;2023-05-16T09:58:44;12.70;10.80
31991;DHT22;18508;49.386;8.370;2023-05-16T10:01:13;12.60;71.80
31991;DHT22;18508;49.386;8.370;2023-05-16T10:03:42;12.50;97.70
31991;DHT22;18508;49.386;8.370;2023-05-16T10:06:12;12.40;99.90
31991;DHT22;18508;49.386;8.370;2023-05-16T10:08:44;12.40;99.90
31991;DHT22;18508;49.386;8.370;2023-05-16T10:11:13;12.30;99.90
31991;DHT22;18508;49.386;8.370;2023-05-16T10:13:42;12.30;99.90
31991;DHT22;18508;49.386;8.370;2023-05-16T10:16:16;12.30;99.90
31991;DHT22;18508;49.386;8.370;2023-05-16T10:18:45;12.30;99.90
31991;DHT22;18508;49.386;8.370;2023-05-16T10:21:14;12.30;99.90
31991;DHT22;18508;49.386;8.370;2023-05-16T10:23:47;12.40;99.90
31991;DHT22;18508;49.386;8.370;2023-05-16T10:26:16;12.40;99.90
31991;DHT22;18508;49.386;8.370;2023-05-16T10:28:45;12.40;99.90
31991;DHT22;18508;49.386;8.370;2023-05-16T10:31:14;12.30;99.90
31991;DHT22;18508;49.386;8.370;2023-05-16T10:33:43;12.20;99.90
31991;DHT22;18508;49.386;8.370;2023-05-16T10:36:13;12.20;99.60
31991;DHT22;18508;49.386;8.370;2023-05-16T10:38:42;12.30;84.60
31991;DHT22;18508;49.386;8.370;2023-05-16T10:41:13;12.30;42.40
31991;DHT22;18508;49.386;8.370;2023-05-16T10:43:46;12.20;24.90
31991;DHT22;18508;49.386;8.370;2023-05-16T10:46:23;12.30;17.50
31991;DHT22;18508;49.386;8.370;2023-05-16T10:48:52;12.20;11.90
31991;DHT22;18508;49.386;8.370;2023-05-16T10:51:34;12.40;32.60
31991;DHT22;18508;49.386;8.370;2023-05-16T10:54:07;12.40;10.80
31991;DHT22;18508;49.386;8.370;2023-05-16T10:56:37;12.40;24.60
31991;DHT22;18508;49.386;8.370;2023-05-16T10:59:22;12.50;30.80
31991;DHT22;18508;49.386;8.370;2023-05-16T11:01:55;12.50;10.90
31991;DHT22;18508;49.386;8.370;2023-05-16T11:04:44;12.40;13.20
31991;DHT22;18508;49.386;8.370;2023-05-16T11:07:14;12.40;25.70
31991;DHT22;18508;49.386;8.370;2023-05-16T11:09:43;12.40;30.40
31991;DHT22;18508;49.386;8.370;2023-05-16T11:12:13;12.40;62.60
31991;DHT22;18508;49.386;8.370;2023-05-16T11:14:42;12.40;99.80
31991;DHT22;18508;49.386;8.370;2023-05-16T11:17:14;12.40;95.00
31991;DHT22;18508;49.386;8.370;2023-05-16T11:19:44;12.50;80.70
31991;DHT22;18508;49.386;8.370;2023-05-16T11:22:21;12.40;77.20
31991;DHT22;18508;49.386;8.370;2023-05-16T11:24:52;12.50;69.20
31991;DHT22;18508;49.386;8.370;2023-05-16T11:27:27;12.40;51.40
31991;DHT22;18508;49.386;8.370;2023-05-16T11:30:11;12.40;67.90
31991;DHT22;18508;49.386;8.370;2023-05-16T11:32:41;12.30;90.80
31991;DHT22;18508;49.386;8.370;2023-05-16T11:35:11;12.20;93.80
31991;DHT22;18508;49.386;8.370;2023-05-16T11:37:41;12.30;99.90
31991;DHT22;18508;49.386;8.370;2023-05-16T11:40:11;12.20;79.40
31991;DHT22;18508;49.386;8.370;2023-05-16T11:42:43;12.20;50.80
31991;DHT22;18508;49.386;8.370;2023-05-16T11:45:14;12.30;45.10
31991;DHT22;18508;49.386;8.370;2023-05-16T11:47:47;12.50;20.70
31991;DHT22;18508;49.386;8.370;2023-05-16T11:50:17;12.40;1.00
31991;DHT22;18508;49.386;8.370;2023-05-16T11:52:47;12.40;1.00
31991;DHT22;18508;49.386;8.370;2023-05-16T11:55:16;12.30;11.90
31991;DHT22;18508;49.386;8.370;2023-05-16T11:58:06;12.20;1.00
31991;DHT22;18508;49.386;8.370;2023-05-16T12:00:46;12.30;22.40
31991;DHT22;18508;49.386;8.370;2023-05-16T12:03:17;12.20;1.00
31991;DHT22;18508;49.386;8.370;2023-05-16T12:05:50;12.30;1.00
31991;DHT22;18508;49.386;8.370;2023-05-16T12:08:21;12.30;1.00
31991;DHT22;18508;49.386;8.370;2023-05-16T12:10:53;12.20;1.00
31991;DHT22;18508;49.386;8.370;2023-05-16T12:13:24;12.10;1.00
31991;DHT22;18508;49.386;8.370;2023-05-16T12:15:52;12.20;1.00
31991;DHT22;18508;49.386;8.370;2023-05-16T12:18:21;12.20;1.00
31991;DHT22;18508;49.386;8.370;2023-05-16T12:20:51;12.20;1.00
31991;DHT22;18508;49.386;8.370;2023-05-16T12:23:19;12.30;1.00
31991;DHT22;18508;49.386;8.370;2023-05-16T12:25:48;12.30;1.00
31991;DHT22;18508;49.386;8.370;2023-05-16T12:30:53;12.60;1.00
31991;DHT22;18508;49.386;8.370;2023-05-16T12:33:21;12.40;1.00
31991;DHT22;18508;49.386;8.370;2023-05-16T12:35:52;12.40;1.00
31991;DHT22;18508;49.386;8.370;2023-05-16T12:38:20;12.60;1.00
31991;DHT22;18508;49.386;8.370;2023-05-16T12:40:57;12.70;99.90
31991;DHT22;18508;49.386;8.370;2023-05-16T12:43:25;12.90;99.90
31991;DHT22;18508;49.386;8.370;2023-05-16T12:45:56;12.90;99.90
31991;DHT22;18508;49.386;8.370;2023-05-16T12:48:32;13.00;99.90
31991;DHT22;18508;49.386;8.370;2023-05-16T12:51:11;13.30;38.00
31991;DHT22;18508;49.386;8.370;2023-05-16T12:53:41;13.50;1.00
31991;DHT22;18508;49.386;8.370;2023-05-16T12:56:27;13.90;1.00
31991;DHT22;18508;49.386;8.370;2023-05-16T12:58:55;14.30;1.00
31991;DHT22;18508;49.386;8.370;2023-05-16T13:01:27;14.70;1.00
31991;DHT22;18508;49.386;8.370;2023-05-16T13:03:58;14.60;1.00
31991;DHT22;18508;49.386;8.370;2023-05-16T13:06:29;14.60;1.00
31991;DHT22;18508;49.386;8.370;2023-05-16T13:09:14;14.50;1.00
31991;DHT22;18508;49.386;8.370;2023-05-16T13:11:44;14.30;99.90
31991;DHT22;18508;49.386;8.370;2023-05-16T13:14:12;14.40;1.00
31991;DHT22;18508;49.386;8.370;2023-05-16T13:16:43;14.40;99.90
31991;DHT22;18508;49.386;8.370;2023-05-16T13:19:11;14.30;99.90
31991;DHT22;18508;49.386;8.370;2023-05-16T13:21:39;14.40;99.90
31991;DHT22;18508;49.386;8.370;2023-05-16T13:24:07;14.70;99.90
31991;DHT22;18508;49.386;8.370;2023-05-16T13:26:35;14.70;99.90
31991;DHT22;18508;49.386;8.370;2023-05-16T13:29:04;14.80;99.90
31991;DHT22;18508;49.386;8.370;2023-05-16T13:31:32;14.90;99.90
31991;DHT22;18508;49.386;8.370;2023-05-16T13:34:01;14.80;99.90
31991;DHT22;18508;49.386;8.370;2023-05-16T13:36:33;14.60;99.90
31991;DHT22;18508;49.386;8.370;2023-05-16T13:39:19;14.90;99.90
31991;DHT22;18508;49.386;8.370;2023-05-16T13:41:48;15.10;99.90
31991;DHT22;18508;49.386;8.370;2023-05-16T13:44:16;15.20;99.90
31991;DHT22;18508;49.386;8.370;2023-05-16T13:46:45;15.50;99.90
31991;DHT22;18508;49.386;8.370;2023-05-16T13:49:14;15.60;99.90
31991;DHT22;18508;49.386;8.370;2023-05-16T13:51:43;15.80;99.90
31991;DHT22;18508;49.386;8.370;2023-05-16T13:54:11;15.80;99.90
31991;DHT22;18508;49.386;8.370;2023-05-16T13:56:39;16.00;99.90
31991;DHT22;18508;49.386;8.370;2023-05-16T13:59:07;16.30;99.90
31991;DHT22;18508;49.386;8.370;2023-05-16T14:01:42;16.60;99.90
31991;DHT22;18508;49.386;8.370;2023-05-16T14:04:10;17.20;99.90
31991;DHT22;18508;49.386;8.370;2023-05-16T14:06:40;16.90;99.90
31991;DHT22;18508;49.386;8.370;2023-05-16T14:09:08;17.20;99.90
31991;DHT22;18508;49.386;8.370;2023-05-16T14:11:36;17.60;99.90
31991;DHT22;18508;49.386;8.370;2023-05-16T14:14:04;18.70;1.00
31991;DHT22;18508;49.386;8.370;2023-05-16T14:16:33;19.60;99.90
31991;DHT22;18508;49.386;8.370;2023-05-16T14:19:01;19.60;99.90
31991;DHT22;18508;49.386;8.370;2023-05-16T14:21:29;20.40;99.90
31991;DHT22;18508;49.386;8.370;2023-05-16T14:24:02;20.50;99.90
31991;DHT22;18508;49.386;8.370;2023-05-16T14:26:31;20.00;99.90
31991;DHT22;18508;49.386;8.370;2023-05-16T14:29:02;20.00;99.90
31991;DHT22;18508;49.386;8.370;2023-05-16T14:31:31;19.90;1.00
31991;DHT22;18508;49.386;8.370;2023-05-16T14:33:59;20.50;99.90
31991;DHT22;18508;49.386;8.370;2023-05-16T14:36:28;20.40;99.90
31991;DHT22;18508;49.386;8.370;2023-05-16T14:38:58;20.40;99.90
31991;DHT22;18508;49.386;8.370;2023-05-16T14:41:26;20.80;99.90
31991;DHT22;18508;49.386;8.370;2023-05-16T14:43:55;22.00;99.90
31991;DHT22;18508;49.386;8.370;2023-05-16T14:46:23;22.00;99.90
31991;DHT22;18508;49.386;8.370;2023-05-16T14:48:51;21.70;99.90
31991;DHT22;18508;49.386;8.370;2023-05-16T14:51:22;21.00;99.90
31991;DHT22;18508;49.386;8.370;2023-05-16T14:53:50;21.10;99.90
31991;DHT22;18508;49.386;8.370;2023-05-16T14:56:19;21.00;99.90
31991;DHT22;18508;49.386;8.370;2023-05-16T14:58:48;21.20;99.90
31991;DHT22;18508;49.386;8.370;2023-05-16T15:01:16;21.00;99.90
31991;DHT22;18508;49.386;8.370;2023-05-16T15:03:44;20.90;99.90
31991;DHT22;18508;49.386;8.370;2023-05-16T15:06:21;20.80;99.90
31991;DHT22;18508;49.386;8.370;2023-05-16T15:08:49;20.60;99.90
31991;DHT22;18508;49.386;8.370;2023-05-16T15:11:17;20.90;99.90
31991;DHT22;18508;49.386;8.370;2023-05-16T15:13:48;20.20;99.90
31991;DHT22;18508;49.386;8.370;2023-05-16T15:16:17;19.80;99.90
31991;DHT22;18508;49.386;8.370;2023-05-16T15:18:45;19.40;99.90
31991;DHT22;18508;49.386;8.370;2023-05-16T15:21:13;19.40;99.90
31991;DHT22;18508;49.386;8.370;2023-05-16T15:23:41;19.70;99.90
31991;DHT22;18508;49.386;8.370;2023-05-16T15:26:09;19.80;99.90
31991;DHT22;18508;49.386;8.370;2023-05-16T15:28:38;18.80;99.90
31991;DHT22;18508;49.386;8.370;2023-05-16T15:31:07;19.00;99.90
31991;DHT22;18508;49.386;8.370;2023-05-16T15:33:35;18.70;99.90
31991;DHT22;18508;49.386;8.370;2023-05-16T15:36:04;18.60;99.90
31991;DHT22;18508;49.386;8.370;2023-05-16T15:38:33;18.30;99.90
31991;DHT22;18508;49.386;8.370;2023-05-16T15:41:02;19.00;99.90
31991;DHT22;18508;49.386;8.370;2023-05-16T15:43:52;19.80;99.90
31991;DHT22;18508;49.386;8.370;2023-05-16T15:46:21;20.70;99.90
31991;DHT22;18508;49.386;8.370;2023-05-16T15:48:50;21.10;99.90
31991;DHT22;18508;49.386;8.370;2023-05-16T15:51:18;21.40;99.90
31991;DHT22;18508;49.386;8.370;2023-05-16T15:53:47;21.60;99.90
31991;DHT22;18508;49.386;8.370;2023-05-16T15:56:15;21.70;99.90
31991;DHT22;18508;49.386;8.370;2023-05-16T15:58:43;21.60;99.90